createdAt,value
2022-10-02T00:01:18.873Z,11.80
2022-10-02T00:03:49.728Z,11.80
2022-10-02T00:06:23.136Z,11.90
2022-10-02T00:08:55.852Z,11.90
2022-10-02T00:11:28.061Z,11.90
2022-10-02T00:14:00.954Z,11.90
2022-10-02T00:16:43.602Z,11.90
2022-10-02T00:19:15.575Z,11.90
2022-10-02T00:22:11.050Z,11.90
2022-10-02T00:24:47.833Z,11.90
2022-10-02T00:27:59.439Z,11.90
2022-10-02T00:30:33.793Z,11.90
2022-10-02T00:33:06.264Z,11.90
2022-10-02T00:35:52.254Z,11.90
2022-10-02T00:38:28.178Z,11.90
2022-10-02T00:41:51.275Z,11.90
2022-10-02T00:44:44.967Z,11.90
2022-10-02T00:47:28.772Z,11.90
2022-10-02T00:50:02.354Z,11.90
2022-10-02T00:52:54.815Z,11.90
2022-10-02T00:55:37.987Z,11.90
2022-10-02T00:58:23.545Z,11.90
2022-10-02T01:01:15.454Z,11.90
2022-10-02T01:03:56.502Z,11.90
2022-10-02T01:06:28.420Z,11.90
2022-10-02T01:08:58.287Z,11.90
2022-10-02T01:11:33.123Z,11.90
2022-10-02T01:14:00.318Z,11.80
2022-10-02T01:16:30.158Z,11.80
2022-10-02T01:18:57.290Z,11.80
2022-10-02T01:21:41.366Z,11.80
2022-10-02T01:24:36.880Z,11.80
2022-10-02T01:27:05.776Z,11.80
2022-10-02T01:29:34.762Z,11.80
2022-10-02T01:32:03.850Z,11.70
2022-10-02T01:34:31.222Z,11.70
2022-10-02T01:37:00.673Z,11.70
2022-10-02T01:39:30.464Z,11.70
2022-10-02T01:41:57.387Z,11.70
2022-10-02T01:44:25.183Z,11.70
2022-10-02T01:47:15.896Z,11.70
2022-10-02T01:50:05.453Z,11.70
2022-10-02T01:53:08.243Z,11.70
2022-10-02T01:55:47.742Z,11.70
2022-10-02T01:58:35.665Z,11.60
2022-10-02T02:01:09.824Z,11.70
2022-10-02T02:03:45.632Z,11.70
2022-10-02T02:06:38.905Z,11.60
2022-10-02T02:09:49.189Z,11.70
2022-10-02T02:12:22.579Z,11.70
2022-10-02T02:15:01.751Z,11.60
2022-10-02T02:17:38.708Z,11.60
2022-10-02T02:20:12.881Z,11.60
2022-10-02T02:22:45.452Z,11.60
2022-10-02T02:25:16.740Z,11.60
2022-10-02T02:27:49.185Z,11.60
2022-10-02T02:30:17.708Z,11.60
2022-10-02T02:32:53.175Z,11.60
2022-10-02T02:35:34.441Z,11.60
2022-10-02T02:38:08.541Z,11.60
2022-10-02T02:40:40.247Z,11.60
2022-10-02T02:43:19.487Z,11.60
2022-10-02T02:45:52.824Z,11.60
2022-10-02T02:48:27.400Z,11.60
2022-10-02T02:51:03.607Z,11.60
2022-10-02T02:53:37.904Z,11.60
2022-10-02T02:56:07.941Z,11.60
2022-10-02T02:58:43.316Z,11.60
2022-10-02T03:01:10.512Z,11.60
2022-10-02T03:03:37.371Z,11.60
2022-10-02T03:06:31.592Z,11.50
2022-10-02T03:09:02.032Z,11.50
2022-10-02T03:12:01.539Z,11.60
2022-10-02T03:15:12.818Z,11.50
2022-10-02T03:18:10.401Z,11.50
2022-10-02T03:20:48.543Z,11.50
2022-10-02T03:23:24.758Z,11.50
2022-10-02T03:26:03.068Z,11.50
2022-10-02T03:28:54.379Z,11.50
2022-10-02T03:31:21.348Z,11.50
2022-10-02T03:33:53.661Z,11.40
2022-10-02T03:36:21.790Z,11.40
2022-10-02T03:39:00.699Z,11.40
2022-10-02T03:41:33.418Z,11.40
2022-10-02T03:44:02.427Z,11.40
2022-10-02T03:46:29.148Z,11.40
2022-10-02T03:48:58.251Z,11.40
2022-10-02T03:51:30.662Z,11.40
2022-10-02T03:53:57.458Z,11.40
2022-10-02T03:56:41.546Z,11.40
2022-10-02T03:59:16.025Z,11.40
2022-10-02T04:01:50.611Z,11.40
2022-10-02T04:04:31.232Z,11.40
2022-10-02T04:07:06.199Z,11.40
2022-10-02T04:10:05.540Z,11.40
2022-10-02T04:12:43.612Z,11.40
2022-10-02T04:15:23.284Z,11.40
2022-10-02T04:18:00.256Z,11.40
2022-10-02T04:20:34.887Z,11.40
2022-10-02T04:23:19.602Z,11.40
2022-10-02T04:26:02.401Z,11.40
2022-10-02T04:28:38.855Z,11.50
2022-10-02T04:31:13.369Z,11.50
2022-10-02T04:33:40.805Z,11.50
2022-10-02T04:36:16.605Z,11.50
2022-10-02T04:38:57.432Z,11.50
2022-10-02T04:42:03.814Z,11.50
2022-10-02T04:44:45.928Z,11.60
2022-10-02T04:47:28.532Z,11.60
2022-10-02T04:50:30.281Z,11.60
2022-10-02T04:53:43.577Z,11.60
2022-10-02T04:56:26.141Z,11.70
2022-10-02T04:58:58.183Z,11.60
2022-10-02T05:01:27.201Z,11.70
2022-10-02T05:04:22.110Z,11.70
2022-10-02T05:06:54.638Z,11.70
2022-10-02T05:09:37.700Z,11.70
2022-10-02T05:12:10.315Z,11.70
2022-10-02T05:14:59.531Z,11.70
2022-10-02T05:17:45.123Z,11.70
2022-10-02T05:20:39.329Z,11.70
2022-10-02T05:23:29.910Z,11.70
2022-10-02T05:26:14.677Z,11.70
2022-10-02T05:28:47.258Z,11.70
2022-10-02T05:31:53.927Z,11.70
2022-10-02T05:34:48.119Z,11.70
2022-10-02T05:37:43.234Z,11.70
2022-10-02T05:40:23.227Z,11.70
2022-10-02T05:43:08.674Z,11.70
2022-10-02T05:45:50.099Z,11.70
2022-10-02T05:48:39.872Z,11.80
2022-10-02T05:51:18.293Z,11.80
2022-10-02T05:53:57.412Z,11.80
2022-10-02T05:56:33.067Z,11.90
2022-10-02T05:59:09.754Z,12.00
2022-10-02T06:01:44.713Z,12.00
2022-10-02T06:04:16.669Z,12.00
2022-10-02T06:06:48.021Z,12.10
2022-10-02T06:09:31.535Z,12.10
2022-10-02T06:12:10.899Z,12.10
2022-10-02T06:14:47.324Z,12.10
2022-10-02T06:17:30.170Z,12.10
2022-10-02T06:20:23.002Z,12.10
2022-10-02T06:23:05.175Z,12.10
2022-10-02T06:25:43.205Z,12.10
2022-10-02T06:28:40.544Z,12.10
2022-10-02T06:31:10.214Z,12.20
2022-10-02T06:33:37.607Z,12.20
2022-10-02T06:36:25.188Z,12.20
2022-10-02T06:39:04.226Z,12.20
2022-10-02T06:41:47.888Z,12.20
2022-10-02T06:44:37.014Z,12.20
2022-10-02T06:47:19.520Z,12.30
2022-10-02T06:49:59.448Z,12.20
2022-10-02T06:52:37.930Z,12.20
2022-10-02T06:55:08.233Z,12.20
2022-10-02T06:57:50.065Z,12.30
2022-10-02T07:00:19.824Z,12.20
2022-10-02T07:03:01.341Z,12.30
2022-10-02T07:05:56.821Z,12.20
2022-10-02T07:08:57.995Z,12.30
2022-10-02T07:11:35.390Z,12.30
2022-10-02T07:14:11.113Z,12.40
2022-10-02T07:16:57.623Z,12.40
2022-10-02T07:19:36.413Z,12.40
2022-10-02T07:22:44.108Z,12.50
2022-10-02T07:25:32.381Z,12.70
2022-10-02T07:28:27.145Z,13.20
2022-10-02T07:31:18.797Z,13.70
2022-10-02T07:34:13.099Z,14.00
2022-10-02T07:36:51.024Z,13.90
2022-10-02T07:39:58.470Z,13.80
2022-10-02T07:42:51.194Z,13.80
2022-10-02T07:45:24.150Z,13.70
2022-10-02T07:48:20.208Z,13.70
2022-10-02T07:51:02.785Z,13.70
2022-10-02T07:53:42.018Z,13.60
2022-10-02T07:56:20.096Z,13.60
2022-10-02T07:58:54.764Z,13.60
2022-10-02T08:01:27.543Z,13.60
2022-10-02T08:04:02.183Z,13.70
2022-10-02T08:06:29.548Z,13.90
2022-10-02T08:09:04.886Z,14.20
2022-10-02T08:11:40.791Z,14.40
2022-10-02T08:14:32.120Z,14.40
2022-10-02T08:17:04.989Z,14.40
2022-10-02T08:19:47.569Z,14.40
2022-10-02T08:22:38.118Z,15.00
2022-10-02T08:25:13.800Z,15.70
2022-10-02T08:28:04.593Z,15.60
2022-10-02T08:30:31.540Z,15.60
2022-10-02T08:33:00.943Z,15.70
2022-10-02T08:35:42.578Z,15.80
2022-10-02T08:38:16.562Z,15.70
2022-10-02T08:41:32.372Z,16.00
2022-10-02T08:44:42.733Z,16.00
2022-10-02T08:47:28.768Z,15.90
2022-10-02T08:50:04.695Z,16.00
2022-10-02T08:52:34.614Z,15.80
2022-10-02T08:55:32.339Z,15.60
2022-10-02T08:58:27.328Z,15.50
2022-10-02T09:01:08.479Z,15.30
2022-10-02T09:03:44.823Z,15.40
2022-10-02T09:06:49.569Z,15.40
2022-10-02T09:09:51.931Z,15.50
2022-10-02T09:12:25.017Z,15.40
2022-10-02T09:15:28.907Z,15.20
2022-10-02T09:18:17.206Z,15.20
2022-10-02T09:21:11.709Z,15.10
2022-10-02T09:24:20.307Z,15.00
2022-10-02T09:27:09.056Z,14.90
2022-10-02T09:30:12.002Z,14.90
2022-10-02T09:33:00.985Z,15.00
2022-10-02T09:35:48.915Z,15.50
2022-10-02T09:38:36.843Z,16.00
2022-10-02T09:41:27.907Z,16.40
2022-10-02T09:44:31.409Z,16.60
2022-10-02T09:47:25.214Z,16.40
2022-10-02T09:50:25.380Z,16.60
2022-10-02T09:53:13.200Z,16.70
2022-10-02T09:56:08.856Z,16.60
2022-10-02T09:58:47.803Z,16.40
2022-10-02T10:02:08.030Z,16.20
2022-10-02T10:05:04.596Z,16.10
2022-10-02T10:08:06.002Z,16.00
2022-10-02T10:11:13.542Z,15.80
2022-10-02T10:14:01.090Z,15.70
2022-10-02T10:17:09.720Z,15.50
2022-10-02T10:19:51.802Z,15.40
2022-10-02T10:22:27.438Z,15.20
2022-10-02T10:25:07.386Z,15.10
2022-10-02T10:27:47.162Z,15.00
2022-10-02T10:30:47.308Z,14.80
2022-10-02T10:33:49.316Z,14.80
2022-10-02T10:36:53.503Z,14.70
2022-10-02T10:39:39.244Z,14.70
2022-10-02T10:42:44.920Z,14.70
2022-10-02T10:45:26.676Z,14.80
2022-10-02T10:48:19.016Z,15.00
2022-10-02T10:51:14.183Z,15.10
2022-10-02T10:53:49.867Z,15.20
2022-10-02T10:56:54.576Z,15.20
2022-10-02T10:59:49.135Z,15.50
2022-10-02T11:02:28.559Z,15.50
2022-10-02T11:05:25.537Z,15.50
2022-10-02T11:08:06.916Z,15.50
2022-10-02T11:10:40.158Z,15.60
2022-10-02T11:13:28.117Z,15.60
2022-10-02T11:16:15.055Z,15.50
2022-10-02T11:19:09.038Z,15.40
2022-10-02T11:22:07.499Z,15.30
2022-10-02T11:24:53.296Z,15.20
2022-10-02T11:27:42.252Z,15.10
2022-10-02T11:30:21.155Z,15.00
2022-10-02T11:32:51.090Z,14.90
2022-10-02T11:35:48.968Z,14.80
2022-10-02T11:38:54.026Z,14.70
2022-10-02T11:41:24.083Z,14.60
2022-10-02T11:44:04.811Z,14.50
2022-10-02T11:46:54.536Z,14.40
2022-10-02T11:50:01.878Z,14.40
2022-10-02T11:52:48.333Z,14.40
2022-10-02T11:55:31.373Z,14.40
2022-10-02T11:58:16.395Z,14.30
2022-10-02T12:01:05.761Z,14.40
2022-10-02T12:04:11.444Z,14.40
2022-10-02T12:07:07.883Z,14.40
2022-10-02T12:10:05.130Z,14.50
2022-10-02T12:12:48.426Z,14.50
2022-10-02T12:15:39.117Z,14.60
2022-10-02T12:18:29.293Z,14.60
2022-10-02T12:21:14.506Z,14.70
2022-10-02T12:24:05.795Z,14.70
2022-10-02T12:27:04.145Z,14.80
2022-10-02T12:30:01.254Z,14.80
2022-10-02T12:32:56.044Z,14.90
2022-10-02T12:35:37.950Z,15.00
2022-10-02T12:38:21.838Z,15.10
2022-10-02T12:41:00.658Z,15.10
2022-10-02T12:43:45.867Z,15.20
2022-10-02T12:46:35.687Z,15.30
2022-10-02T12:49:12.299Z,15.30
2022-10-02T12:52:28.363Z,15.30
2022-10-02T12:55:32.117Z,15.30
2022-10-02T12:58:26.632Z,15.30
2022-10-02T13:01:12.294Z,15.20
2022-10-02T13:04:16.465Z,15.20
2022-10-02T13:07:01.365Z,15.10
2022-10-02T13:09:50.395Z,15.00
2022-10-02T13:12:36.297Z,15.00
2022-10-02T13:15:34.206Z,15.00
2022-10-02T13:18:22.807Z,15.00
2022-10-02T13:21:16.071Z,15.00
2022-10-02T13:24:20.638Z,15.10
2022-10-02T13:27:14.133Z,15.30
2022-10-02T13:30:02.663Z,15.30
2022-10-02T13:32:52.454Z,15.50
2022-10-02T13:35:38.077Z,15.60
2022-10-02T13:38:42.532Z,15.70
2022-10-02T13:41:26.825Z,15.80
2022-10-02T13:44:14.876Z,15.80
2022-10-02T13:47:00.759Z,15.80
2022-10-02T13:49:55.658Z,15.80
2022-10-02T13:52:48.849Z,15.80
2022-10-02T13:55:32.939Z,15.70
2022-10-02T13:58:10.075Z,15.70
2022-10-02T14:00:48.891Z,15.60
2022-10-02T14:03:34.584Z,15.60
2022-10-02T14:06:14.319Z,15.60
2022-10-02T14:08:57.354Z,15.60
2022-10-02T14:11:44.674Z,15.50
2022-10-02T14:14:32.489Z,15.50
2022-10-02T14:17:20.670Z,15.50
2022-10-02T14:20:08.619Z,15.50
2022-10-02T14:22:57.319Z,15.50
2022-10-02T14:25:36.323Z,15.50
2022-10-02T14:28:12.502Z,15.40
2022-10-02T14:30:55.026Z,15.40
2022-10-02T14:33:36.294Z,15.40
2022-10-02T14:36:09.276Z,15.30
2022-10-02T14:38:59.688Z,15.30
2022-10-02T14:41:53.279Z,15.30
2022-10-02T14:44:20.140Z,15.30
2022-10-02T14:47:04.760Z,15.30
2022-10-02T14:49:38.220Z,15.30
2022-10-02T14:52:30.860Z,15.30
2022-10-02T14:55:35.901Z,15.20
2022-10-02T14:58:30.073Z,15.20
2022-10-02T15:01:18.515Z,15.20
2022-10-02T15:04:06.653Z,15.20
2022-10-02T15:06:56.534Z,15.20
2022-10-02T15:09:53.803Z,15.10
2022-10-02T15:12:35.795Z,15.10
2022-10-02T15:15:22.513Z,15.20
2022-10-02T15:18:10.797Z,15.20
2022-10-02T15:21:02.297Z,15.20
2022-10-02T15:23:41.539Z,15.20
2022-10-02T15:30:06.251Z,15.20
2022-10-02T15:32:43.066Z,15.10
2022-10-02T15:35:33.911Z,15.10
2022-10-02T15:38:22.719Z,15.00
2022-10-02T15:41:16.645Z,15.00
2022-10-02T15:43:49.435Z,15.00
2022-10-02T15:46:51.454Z,15.00
2022-10-02T15:49:42.310Z,14.90
2022-10-02T15:52:27.944Z,14.90
2022-10-02T15:55:36.068Z,14.90
2022-10-02T15:58:30.599Z,14.80
2022-10-02T16:01:27.545Z,14.80
2022-10-02T16:04:22.178Z,14.80
2022-10-02T16:07:18.920Z,14.80
2022-10-02T16:10:03.951Z,14.80
2022-10-02T16:12:33.517Z,14.70
2022-10-02T16:15:32.399Z,14.70
2022-10-02T16:18:05.170Z,14.70
2022-10-02T16:21:01.097Z,14.70
2022-10-02T16:24:02.195Z,14.60
2022-10-02T16:26:32.014Z,14.60
2022-10-02T16:29:19.992Z,14.50
2022-10-02T16:31:58.870Z,14.50
2022-10-02T16:34:41.239Z,14.50
2022-10-02T16:37:24.873Z,14.50
2022-10-02T16:40:03.267Z,14.40
2022-10-02T16:42:42.332Z,14.40
2022-10-02T16:45:55.242Z,14.40
2022-10-02T16:48:27.790Z,14.40
2022-10-02T16:51:33.520Z,14.30
2022-10-02T16:54:11.551Z,14.30
2022-10-02T16:56:47.274Z,14.30
2022-10-02T16:59:20.133Z,14.20
2022-10-02T17:02:17.011Z,14.20
2022-10-02T17:05:02.038Z,14.20
2022-10-02T17:07:52.993Z,14.20
2022-10-02T17:10:32.737Z,14.10
2022-10-02T17:13:35.936Z,14.10
2022-10-02T17:16:21.692Z,14.10
2022-10-02T17:19:16.808Z,14.10
2022-10-02T17:21:50.392Z,14.10
2022-10-02T17:24:27.080Z,14.00
2022-10-02T17:27:02.587Z,14.00
2022-10-02T17:29:40.204Z,13.90
2022-10-02T17:32:10.138Z,13.90
2022-10-02T17:34:49.214Z,13.90
2022-10-02T17:37:20.883Z,13.90
2022-10-02T17:39:56.803Z,13.90
2022-10-02T17:42:46.565Z,13.80
2022-10-02T17:45:38.488Z,13.80
2022-10-02T17:48:10.558Z,13.80
2022-10-02T17:51:40.499Z,13.80
2022-10-02T17:54:44.741Z,13.80
2022-10-02T17:57:33.520Z,13.80
2022-10-02T18:00:21.271Z,13.70
2022-10-02T18:03:03.830Z,13.70
2022-10-02T18:05:50.641Z,13.70
2022-10-02T18:08:49.297Z,13.70
2022-10-02T18:11:19.099Z,13.70
2022-10-02T18:13:55.999Z,13.60
2022-10-02T18:16:32.423Z,13.60
2022-10-02T18:19:26.321Z,13.60
2022-10-02T18:22:26.896Z,13.60
2022-10-02T18:25:12.518Z,13.60
2022-10-02T18:28:12.185Z,13.60
2022-10-02T18:30:53.670Z,13.60
2022-10-02T18:34:06.685Z,13.60
2022-10-02T18:36:37.645Z,13.60
2022-10-02T18:39:23.414Z,13.60
2022-10-02T18:41:55.421Z,13.50
2022-10-02T18:44:24.507Z,13.50
2022-10-02T18:47:11.738Z,13.50
2022-10-02T18:49:52.861Z,13.50
2022-10-02T18:52:22.575Z,13.50
2022-10-02T18:55:01.120Z,13.40
2022-10-02T18:57:46.753Z,13.40
2022-10-02T19:00:21.538Z,13.40
2022-10-02T19:03:08.240Z,13.40
2022-10-02T19:05:35.409Z,13.40
2022-10-02T19:08:04.293Z,13.30
2022-10-02T19:10:31.078Z,13.30
2022-10-02T19:13:17.524Z,13.20
2022-10-02T19:15:46.403Z,13.20
2022-10-02T19:18:15.989Z,13.20
2022-10-02T19:20:49.212Z,13.20
2022-10-02T19:23:21.288Z,13.20
2022-10-02T19:25:48.524Z,13.20
2022-10-02T19:28:16.240Z,13.20
2022-10-02T19:30:46.323Z,13.20
2022-10-02T19:33:19.957Z,13.20
2022-10-02T19:35:49.168Z,13.20
2022-10-02T19:38:22.080Z,13.10
2022-10-02T19:40:52.990Z,13.10
2022-10-02T19:43:24.569Z,13.10
2022-10-02T19:45:56.727Z,13.10
2022-10-02T19:48:26.663Z,13.10
2022-10-02T19:50:58.470Z,13.10
2022-10-02T19:53:36.525Z,13.10
2022-10-02T19:56:09.098Z,13.10
2022-10-02T19:58:38.968Z,13.00
2022-10-02T20:01:18.409Z,13.00
2022-10-02T20:03:45.965Z,13.00
2022-10-02T20:06:20.142Z,13.00
2022-10-02T20:08:50.662Z,13.00
2022-10-02T20:11:27.865Z,13.00
2022-10-02T20:13:56.343Z,12.90
2022-10-02T20:16:44.462Z,12.90
2022-10-02T20:19:30.273Z,12.90
2022-10-02T20:22:06.749Z,12.90
2022-10-02T20:24:33.647Z,12.90
2022-10-02T20:27:04.896Z,12.80
2022-10-02T20:29:36.811Z,12.80
2022-10-02T20:32:11.553Z,12.80
2022-10-02T20:34:47.298Z,12.80
2022-10-02T20:37:18.713Z,12.80
2022-10-02T20:39:50.209Z,12.80
2022-10-02T20:42:22.945Z,12.80
2022-10-02T20:44:52.824Z,12.80
2022-10-02T20:47:38.386Z,12.80
2022-10-02T20:50:16.143Z,12.70
2022-10-02T20:53:02.723Z,12.70
2022-10-02T20:55:38.719Z,12.70
2022-10-02T20:58:14.660Z,12.70
2022-10-02T21:00:49.814Z,12.70
2022-10-02T21:03:19.491Z,12.70
2022-10-02T21:05:47.288Z,12.70
2022-10-02T21:08:22.727Z,12.70
2022-10-02T21:11:13.282Z,12.70
2022-10-02T21:13:49.016Z,12.60
2022-10-02T21:16:21.882Z,12.60
2022-10-02T21:19:21.134Z,12.60
2022-10-02T21:21:58.074Z,12.60
2022-10-02T21:24:33.649Z,12.60
2022-10-02T21:27:19.710Z,12.60
2022-10-02T21:29:54.929Z,12.60
2022-10-02T21:32:25.061Z,12.50
2022-10-02T21:35:04.304Z,12.60
2022-10-02T21:37:31.561Z,12.50
2022-10-02T21:40:12.355Z,12.50
2022-10-02T21:42:48.912Z,12.50
2022-10-02T21:45:34.117Z,12.50
2022-10-02T21:48:21.867Z,12.50
2022-10-02T21:50:51.580Z,12.50
2022-10-02T21:53:51.805Z,12.50
2022-10-02T21:56:24.625Z,12.40
2022-10-02T21:59:05.263Z,12.40
2022-10-02T22:01:42.753Z,12.40
2022-10-02T22:04:21.122Z,12.40
2022-10-02T22:07:03.575Z,12.40
2022-10-02T22:09:50.506Z,12.40
2022-10-02T22:12:39.296Z,12.40
2022-10-02T22:15:08.962Z,12.40
2022-10-02T22:17:46.506Z,12.30
2022-10-02T22:20:32.085Z,12.30
2022-10-02T22:23:04.940Z,12.30
2022-10-02T22:25:43.651Z,12.30
2022-10-02T22:28:28.752Z,12.30
2022-10-02T22:30:55.462Z,12.30
2022-10-02T22:33:43.505Z,12.30
2022-10-02T22:36:31.980Z,12.30
2022-10-02T22:39:16.457Z,12.30
2022-10-02T22:41:59.703Z,12.20
2022-10-02T22:44:26.660Z,12.20
2022-10-02T22:46:58.235Z,12.20
2022-10-02T22:49:43.959Z,12.20
2022-10-02T22:52:17.596Z,12.20
2022-10-02T22:54:55.451Z,12.20
2022-10-02T22:57:31.215Z,12.20
2022-10-02T22:59:57.954Z,12.20
2022-10-02T23:02:47.882Z,12.20
2022-10-02T23:05:14.609Z,12.20
2022-10-02T23:07:49.523Z,12.10
2022-10-02T23:10:31.511Z,12.10
2022-10-02T23:13:24.062Z,12.10
2022-10-02T23:15:57.066Z,12.00
2022-10-02T23:18:23.774Z,12.00
2022-10-02T23:21:02.574Z,12.00
2022-10-02T23:23:32.821Z,12.00
2022-10-02T23:26:06.585Z,11.90
2022-10-02T23:28:36.049Z,12.00
2022-10-02T23:31:02.809Z,11.90
2022-10-02T23:33:36.807Z,11.90
2022-10-02T23:36:15.805Z,11.90
2022-10-02T23:38:48.502Z,11.90
2022-10-02T23:41:42.707Z,11.90
2022-10-02T23:44:09.850Z,11.90
2022-10-02T23:46:48.444Z,11.90
2022-10-02T23:49:32.528Z,11.90
2022-10-02T23:52:05.348Z,11.90
2022-10-02T23:54:38.513Z,11.90
2022-10-02T23:57:24.148Z,11.80
